Alfred, Texas
Current Conditions -  °F | °C
As of 5:53 PM on Friday 19 Dec 2014 (Local Time) from KALI Reporting Station
Overcast Overcast  
Wind Chill: 63°   Ceiling: 2100
Heat Index: 63°   Visibility: 10mi
Dew Point: 56°   Wind: 9mph
Humidity: 78%   Direction: 20°NNE
Pressure: 30.05"   Gusts: NA
Location:  27.6821°N, 98.1034°W
Report Text: KALI 192353Z AUTO 02008KT 10SM OVC021 17/13 A3005 RMK AO2 SLP174 T01720133 10183 20133 53013
Loading
Personal Weather Stations






























Interactive Weather Map New forecast layout! Learn more

10-Day Weather Forecast

Advertisements
Track Severe Weather on mobile